Main page
METAR-TAF:

METAR-TAF

Airports :

Bologna, Italy

Bologna Guglielmo Marconi Airport

latitude: 44-32N, longitude: 011-18E, elevation: 36 m

Current weather observation

The report was made 18 minutes ago, at 18:50 UTC
Wind 5 kt from the West/Southwest, varying between South/Southwest and West
Temperature 9°C
Humidity 76%
Pressure 1018 hPa
Visibility 10 km or more
Broken clouds at a height of 3200 ft

METAR: LIPE 171850Z 24005KT 210V270 9999 BKN032 09/05 Q1018

Time: 20:08 (19:08 UTC)

Forecast

The report was made 2 hours and 8 minutes ago, at 17:00 UTC
Forecast valid from 17 at 18 UTC to 18 at 18 UTC
Wind 4 kt from variable directions
Visibility 10 km or more
Few clouds at a height of 4000 ft

TAF: LIPE 171700Z 1718/1818 VRB04KT 9999 FEW040

Weather observations and forecasts of more than 4000 airports (METAR and TAF reports).

The available stations are represented by yellow and red dots on the map.

Hover mouse over dot to see the name of the station.

Then click to see weather observations and forecasts.

To change the map : click on the green buttons with a black cross to zoom in, on the green button with a dash to zoom out, or on the green arrows for adjacent maps.


METAR-TAF: